Time;durP1;ratioP1;P1;durP2;ratioP2;P2;SDS_P1;SDS_P2;PMS_P1;PMS_P2;Temp;Humidity;BMP_temperature;BMP_pressure;BME280_temperature;BME280_humidity;BME280_pressure;Samples;Min_cycle;Max_cycle;Signal;HPM_P1;HPM_P2
2022/11/29 00:01:25;;;;;;;7.63;6.20;;;10.20;96.20;;;10.78;66.08;98391.75;4975020;28;124507;-77
2022/11/29 00:03:53;;;;;;;11.60;6.40;;;10.30;96.30;;;10.78;65.97;98389.00;4954348;28;122001;-77
2022/11/29 00:06:26;;;;;;;7.10;5.40;;;10.30;96.30;;;10.78;65.67;98386.25;4967478;28;113662;-77
2022/11/29 00:08:54;;;;;;;10.80;6.53;;;10.30;96.30;;;10.78;66.19;98389.00;4962610;28;115341;-77
2022/11/29 00:14:25;;;;;;;10.10;6.73;;;10.30;96.30;;;10.78;66.05;98389.00;4973708;28;124344;-77
2022/11/29 00:16:58;;;;;;;9.90;6.43;;;12.10;97.20;;;10.81;66.06;98377.28;4955700;28;114707;-76
2022/11/29 00:19:24;;;;;;;7.27;5.40;;;10.30;96.70;;;10.80;66.31;98382.03;4951639;28;113800;-76
2022/11/29 00:21:51;;;;;;;8.43;5.57;;;10.30;96.40;;;10.83;66.28;98375.03;4972626;28;124530;-77
2022/11/29 00:24:17;;;;;;;8.80;6.00;;;10.60;96.50;;;10.83;65.63;98375.84;4970336;28;122987;-78
2022/11/29 00:26:44;;;;;;;9.47;5.53;;;10.30;96.40;;;10.84;65.80;98380.22;4965464;28;114262;-78
2022/11/29 00:29:12;;;;;;;7.73;6.33;;;10.40;96.50;;;10.84;66.29;98374.69;4959580;28;114315;-78
2022/11/29 00:31:39;;;;;;;8.90;5.57;;;10.30;96.40;;;10.86;66.24;98379.09;4961017;28;124627;-78
2022/11/29 00:34:06;;;;;;;8.43;5.73;;;10.40;96.50;;;10.87;66.17;98376.00;4964472;28;123202;-78
2022/11/29 00:36:34;;;;;;;7.57;5.60;;;10.40;96.50;;;10.87;65.91;98376.00;4961710;28;114275;-78
2022/11/29 00:39:03;;;;;;;8.00;5.87;;;10.40;96.50;;;10.88;65.87;98383.16;4969695;28;114011;-78
2022/11/29 00:41:30;;;;;;;10.50;6.57;;;10.40;96.50;;;10.88;66.41;98383.16;4939182;28;124335;-78
2022/11/29 00:43:57;;;;;;;9.07;6.40;;;10.40;96.50;;;10.89;66.13;98383.97;4954228;28;123902;-78
2022/11/29 00:46:24;;;;;;;10.87;6.70;;;10.40;96.50;;;10.90;66.31;98382.81;4975888;28;113031;-78
2022/11/29 00:48:50;;;;;;;7.70;6.33;;;10.40;96.50;;;10.88;66.13;98377.63;4972056;28;114113;-78
2022/11/29 00:51:17;;;;;;;9.07;5.47;;;10.40;96.50;;;10.88;66.49;98388.69;4954014;28;124003;-78
2022/11/29 00:53:43;;;;;;;7.83;6.10;;;10.40;96.50;;;10.89;66.51;98382.00;4959071;28;124015;-78
2022/11/29 00:56:10;;;;;;;10.30;6.33;;;10.40;96.60;;;10.89;66.51;98383.97;4971588;28;115153;-78
2022/11/29 00:58:36;;;;;;;8.63;6.23;;;10.40;96.60;;;10.89;66.58;98379.25;4960285;28;114629;-78
2022/11/29 01:01:04;;;;;;;8.20;5.40;;;10.40;96.60;;;10.91;66.37;98390.81;4955667;28;124058;-77
2022/11/29 01:03:30;;;;;;;11.50;6.03;;;10.40;96.60;;;10.93;66.37;98390.47;4962049;28;123586;-76
2022/11/29 01:06:04;;;;;;;9.00;5.80;;;10.40;96.70;;;10.93;66.25;98391.25;4969200;28;114249;-76
2022/11/29 01:08:31;;;;;;;8.67;6.20;;;10.40;96.70;;;10.92;66.31;98386.88;4967145;28;113481;-76
2022/11/29 01:11:26;;;;;;;8.07;5.73;;;10.40;96.70;;;10.93;66.45;98380.22;4915968;28;126008;-76
2022/11/29 01:13:57;;;;;;;7.50;5.20;;;10.40;97.00;;;10.92;66.20;98386.88;4922177;28;122782;-77
2022/11/29 01:16:25;;;;;;;8.23;5.93;;;10.50;96.70;;;10.92;66.13;98388.84;4928386;28;113958;-76
2022/11/29 01:18:51;;;;;;;9.40;6.60;;;10.50;96.80;;;10.93;66.56;98384.94;4930093;28;116717;-76
2022/11/29 01:21:21;;;;;;;7.47;5.60;;;10.40;96.70;;;10.92;66.29;98384.13;4927512;28;124076;-76
2022/11/29 01:23:52;;;;;;;9.50;5.50;;;10.40;96.70;;;10.93;66.69;98391.25;4927385;28;123805;-77
2022/11/29 01:26:22;;;;;;;6.80;5.53;;;10.40;96.70;;;10.93;66.29;98396.00;4928723;28;114280;-75
2022/11/29 01:28:51;;;;;;;8.10;5.80;;;10.40;96.70;;;10.92;66.31;98389.66;4928872;28;115632;-76
2022/11/29 01:31:31;;;;;;;8.40;5.93;;;10.40;96.70;;;10.93;66.44;98396.78;4927215;28;124737;-76
2022/11/29 01:34:00;;;;;;;8.40;5.50;;;10.40;96.70;;;10.92;66.65;98397.94;4930006;28;124438;-76
2022/11/29 01:36:28;;;;;;;6.33;5.67;;;10.40;96.70;;;10.91;66.45;98393.56;4933486;28;113939;-76
2022/11/29 01:38:57;;;;;;;6.60;5.20;;;10.40;96.70;;;10.90;66.46;98397.44;4932621;28;114010;-76
2022/11/29 01:41:29;;;;;;;8.17;6.67;;;10.50;97.10;;;10.93;66.42;98396.00;4934002;28;124073;-77
2022/11/29 01:44:15;;;;;;;8.77;5.53;;;10.40;96.70;;;10.92;66.62;98395.19;4933138;28;123985;-77
2022/11/29 01:46:45;;;;;;;7.20;5.67;;;10.50;96.80;;;10.91;66.55;98396.34;4924197;28;116050;-77
2022/11/29 01:49:33;;;;;;;6.50;5.33;;;10.40;96.70;;;10.92;66.35;98389.66;4936054;28;114765;-80
2022/11/29 01:52:14;;;;;;;7.87;5.37;;;10.40;96.70;;;10.91;66.54;98398.25;4924166;28;123976;-77
2022/11/29 01:54:48;;;;;;;6.50;5.10;;;10.40;96.70;;;10.89;66.49;98393.06;4930723;28;121914;-76
2022/11/29 01:57:15;;;;;;;6.57;5.23;;;10.40;96.70;;;10.87;66.54;98398.09;4929380;28;114242;-77
2022/11/29 01:59:49;;;;;;;8.77;5.97;;;10.50;96.70;;;10.87;66.41;98391.75;4928839;28;113961;-76
2022/11/29 02:02:31;;;;;;;6.00;4.63;;;10.40;96.70;;;10.86;65.97;98393.72;4928825;28;124033;-76
2022/11/29 02:04:59;;;;;;;6.97;4.73;;;10.40;96.70;;;10.85;66.66;98394.84;4928095;28;123601;-77
2022/11/29 02:07:25;;;;;;;8.00;5.80;;;10.40;96.70;;;10.85;66.15;98392.06;4924163;28;114214;-77
2022/11/29 02:09:52;;;;;;;6.40;4.90;;;10.40;96.70;;;10.86;66.29;98396.50;4951345;28;113918;-77
2022/11/29 02:12:36;;;;;;;6.20;5.40;;;10.40;96.70;;;10.88;66.64;98388.69;4956222;28;124154;-77
2022/11/29 02:15:12;;;;;;;8.23;6.00;;;10.60;96.80;;;10.87;66.36;98389.81;4959493;28;123900;-76
2022/11/29 02:18:10;;;;;;;6.43;4.63;;;10.40;96.70;;;10.87;66.60;98383.47;4964037;28;114177;-76
2022/11/29 02:21:07;;;;;;;6.00;5.00;;;10.40;96.70;;;10.85;66.24;98392.06;4936837;28;113149;-76
2022/11/29 02:24:25;;;;;;;7.07;4.87;;;10.40;96.70;;;10.82;66.41;98396.31;4966697;28;123861;-76
2022/11/29 02:27:09;;;;;;;5.27;4.30;;;10.40;96.70;;;10.82;66.31;98395.50;4934441;28;124443;-76
2022/11/29 02:30:10;;;;;;;4.60;4.10;;;10.40;96.70;;;10.81;66.52;98393.88;4963297;28;114025;-76
2022/11/29 02:33:36;;;;;;;6.60;4.20;;;10.40;96.80;;;10.82;66.67;98389.97;4952540;28;113794;-77
2022/11/29 02:36:22;;;;;;;5.70;4.97;;;10.30;96.70;;;10.80;66.90;98389.47;4927897;28;125012;-77
2022/11/29 02:39:35;;;;;;;6.97;4.60;;;10.30;96.80;;;10.80;66.93;98392.22;4913514;28;123995;-77
2022/11/29 02:42:22;;;;;;;5.63;4.60;;;10.30;96.80;;;10.78;66.55;98391.75;4924306;28;115157;-77
2022/11/29 02:45:33;;;;;;;7.23;5.10;;;10.30;96.80;;;10.79;66.81;98391.44;4917803;28;115328;-77
2022/11/29 02:48:10;;;;;;;7.10;5.27;;;10.30;96.80;;;10.81;66.67;98393.88;4904222;28;123846;-77
2022/11/29 02:50:42;;;;;;;5.00;4.40;;;10.30;96.80;;;10.82;66.76;98392.72;4910097;28;123618;-77
2022/11/29 02:53:23;;;;;;;8.70;5.43;;;10.30;96.90;;;10.83;66.78;98394.38;4917249;28;114225;-77
2022/11/29 02:56:13;;;;;;;5.77;4.50;;;10.40;96.90;;;10.84;66.91;98398.75;4908721;28;112917;-77
2022/11/29 02:59:15;;;;;;;7.43;4.77;;;10.40;96.90;;;10.83;66.42;98392.41;4920737;28;124154;-77
2022/11/29 03:02:07;;;;;;;6.57;4.33;;;10.40;96.90;;;10.85;66.47;98405.91;4901088;28;122256;-77
2022/11/29 03:04:47;;;;;;;4.70;4.07;;;10.40;96.90;;;10.85;66.92;98397.59;4903479;28;114352;-77
2022/11/29 03:08:07;;;;;;;5.50;3.70;;;10.40;96.90;;;10.86;66.56;98396.50;4927527;28;113687;-77
2022/11/29 03:10:45;;;;;;;6.00;3.70;;;10.30;96.90;;;10.86;66.96;98410.31;4970420;28;124637;-77
2022/11/29 03:13:38;;;;;;;6.10;4.17;;;10.40;96.90;;;10.87;66.75;98397.28;4968471;28;123638;-77
2022/11/29 03:16:42;;;;;;;5.73;3.77;;;10.40;96.90;;;10.86;66.82;98407.53;4967391;28;114122;-76
2022/11/29 03:19:17;;;;;;;5.23;4.13;;;10.40;96.90;;;10.88;66.70;98409.97;4968587;28;114552;-77
2022/11/29 03:22:51;;;;;;;5.50;3.67;;;10.40;96.90;;;10.86;66.33;98406.72;4961128;28;121999;-76
2022/11/29 03:25:52;;;;;;;4.50;3.50;;;10.40;96.90;;;10.86;66.63;98412.25;4959504;28;124222;-76
2022/11/29 03:28:47;;;;;;;4.90;3.50;;;10.40;96.90;;;10.87;66.44;98424.94;4968932;28;113767;-76
2022/11/29 03:31:31;;;;;;;3.83;3.00;;;10.40;96.90;;;10.87;66.90;98416.63;4974257;28;113096;-76
2022/11/29 03:34:24;;;;;;;4.30;3.03;;;10.40;96.90;;;10.88;66.67;98416.31;4944661;28;124223;-76
2022/11/29 03:37:19;;;;;;;3.20;2.90;;;10.40;96.90;;;10.89;66.86;98426.25;4968441;28;123676;-76
2022/11/29 03:40:12;;;;;;;3.47;3.17;;;10.40;96.90;;;10.89;66.62;98417.94;4970700;28;115540;-77
2022/11/29 03:42:58;;;;;;;4.20;3.20;;;10.40;96.90;;;10.91;66.88;98417.59;4975020;28;114268;-76
2022/11/29 03:45:31;;;;;;;4.93;3.50;;;10.40;96.90;;;10.91;66.88;98412.06;4969169;28;124613;-77
2022/11/29 03:48:10;;;;;;;3.53;2.90;;;10.40;96.90;;;10.91;66.63;98415.69;4969114;28;123142;-76
2022/11/29 03:50:43;;;;;;;3.73;2.97;;;10.40;96.90;;;10.92;66.55;98424.78;4963364;28;114077;-76
2022/11/29 03:53:27;;;;;;;3.80;3.10;;;10.40;96.90;;;10.92;66.79;98428.34;4951998;28;113756;-76
2022/11/29 03:56:02;;;;;;;4.87;3.20;;;10.40;96.90;;;10.92;66.84;98424.78;4968611;28;124517;-76
2022/11/29 03:58:48;;;;;;;3.83;3.47;;;10.40;97.00;;;10.92;66.58;98422.00;4955566;28;124623;-76
2022/11/29 04:01:20;;;;;;;6.10;3.37;;;10.40;97.00;;;10.92;67.13;98433.88;4971604;28;114181;-77
2022/11/29 04:04:22;;;;;;;4.90;4.10;;;10.40;97.00;;;10.93;66.84;98424.44;4970461;28;113768;-78
2022/11/29 04:07:05;;;;;;;4.40;3.63;;;10.40;97.00;;;10.94;66.68;98431.59;4931704;28;123565;-77
2022/11/29 04:10:05;;;;;;;4.40;2.83;;;10.40;97.00;;;10.93;66.61;98418.91;4954330;28;123290;-77
2022/11/29 04:13:17;;;;;;;4.63;3.40;;;10.50;97.10;;;10.93;66.73;98434.69;4971154;28;113225;-77
2022/11/29 04:16:24;;;;;;;3.87;3.20;;;10.40;97.00;;;10.90;67.02;98427.84;4973615;28;116216;-77
2022/11/29 04:19:19;;;;;;;5.77;3.97;;;10.40;97.00;;;10.92;66.93;98436.63;4950998;28;123126;-77
2022/11/29 04:22:19;;;;;;;4.10;3.30;;;10.70;97.20;;;10.91;67.11;98432.25;4939882;28;123773;-77
2022/11/29 04:25:23;;;;;;;4.00;3.60;;;10.50;97.10;;;10.92;66.99;98433.88;4969711;28;114244;-76
2022/11/29 04:28:32;;;;;;;4.27;3.43;;;10.40;97.10;;;10.91;67.22;98440.56;4974274;28;114573;-77
2022/11/29 04:31:33;;;;;;;4.83;3.70;;;10.50;97.10;;;10.92;67.01;98442.16;4955739;28;123844;-77
2022/11/29 04:34:37;;;;;;;4.20;3.53;;;10.50;97.20;;;10.92;66.92;98438.59;4952860;28;123204;-76
2022/11/29 04:37:43;;;;;;;3.53;3.20;;;10.50;97.20;;;10.94;67.13;98447.38;4969775;28;115335;-77
2022/11/29 04:40:46;;;;;;;3.77;3.10;;;10.50;97.20;;;10.93;67.14;98446.53;4970583;28;114979;-77
2022/11/29 04:44:02;;;;;;;4.50;3.30;;;10.40;97.20;;;10.93;66.80;98451.25;4953210;28;122944;-77
2022/11/29 04:47:00;;;;;;;2.97;2.53;;;10.40;97.10;;;10.91;67.25;98457.13;4969442;28;123726;-77
2022/11/29 04:49:55;;;;;;;3.80;2.77;;;10.40;97.10;;;10.92;66.90;98455.19;4960987;28;113918;-77
2022/11/29 04:52:29;;;;;;;4.40;3.10;;;10.50;97.20;;;10.92;66.85;98455.97;4956549;28;113312;-77
2022/11/29 04:55:36;;;;;;;3.60;2.87;;;10.50;97.10;;;10.94;66.99;98452.91;4969236;28;124191;-77
2022/11/29 04:58:40;;;;;;;3.83;2.90;;;10.50;97.10;;;10.94;67.05;98459.25;4925546;28;123132;-77
2022/11/29 05:02:17;;;;;;;3.00;2.67;;;11.10;97.30;;;10.92;66.65;98457.94;4940766;28;114399;-77
2022/11/29 05:05:06;;;;;;;4.10;2.70;;;10.50;97.10;;;10.91;66.78;98462.66;4896175;28;112222;-77
2022/11/29 05:08:19;;;;;;;2.50;2.30;;;10.50;97.00;;;10.91;66.93;98475.66;4945350;28;123606;-77
2022/11/29 05:10:59;;;;;;;3.00;2.40;;;10.40;97.00;;;10.90;66.75;98469.31;4967887;28;124206;-77
2022/11/29 05:13:55;;;;;;;3.13;2.53;;;10.40;97.00;;;10.89;66.61;98466.88;4950876;28;114324;-77
2022/11/29 05:16:40;;;;;;;3.90;2.73;;;10.40;97.00;;;10.88;66.62;98481.81;4935628;28;113209;-77
2022/11/29 05:19:44;;;;;;;3.37;2.87;;;10.40;97.00;;;10.87;66.72;98471.91;4948642;28;124095;-77
2022/11/29 05:22:30;;;;;;;3.20;2.40;;;10.40;97.00;;;10.88;66.80;98479.91;4970639;28;123943;-77
2022/11/29 05:25:41;;;;;;;3.77;2.60;;;10.40;97.00;;;10.87;67.18;98478.25;4962715;28;114442;-77
2022/11/29 05:28:36;;;;;;;3.63;2.67;;;10.40;97.00;;;10.87;66.97;98474.69;4948448;28;114088;-78
2022/11/29 05:31:40;;;;;;;3.43;2.43;;;10.40;97.10;;;10.85;66.88;98480.50;4971249;28;124456;-77
2022/11/29 05:34:49;;;;;;;2.87;2.57;;;10.40;97.10;;;10.83;66.97;98485.56;4948333;28;123942;-77
2022/11/29 05:37:50;;;;;;;3.60;2.80;;;10.40;97.10;;;10.81;66.91;98483.13;4957977;28;115700;-77
2022/11/29 05:40:39;;;;;;;3.17;2.40;;;10.40;97.10;;;10.80;67.09;98491.72;4927060;28;114218;-77
2022/11/29 05:43:30;;;;;;;3.40;2.10;;;10.40;97.10;;;10.77;67.41;98482.16;4968911;28;123841;-77
2022/11/29 05:46:42;;;;;;;2.50;2.30;;;10.30;97.10;;;10.78;67.27;98482.97;4960774;28;124182;-77
2022/11/29 05:49:46;;;;;;;2.17;1.97;;;10.30;97.20;;;10.75;67.38;98486.38;4951841;28;113904;-77
2022/11/29 05:52:49;;;;;;;2.93;2.50;;;10.30;97.20;;;10.74;67.10;98490.25;4958712;28;114160;-76
2022/11/29 05:55:43;;;;;;;3.87;2.20;;;10.30;97.20;;;10.72;67.26;98498.88;4967479;28;124508;-76
2022/11/29 05:58:25;;;;;;;2.87;2.43;;;9.30;97.30;;;10.74;67.32;98509.59;4966265;28;123776;-76
2022/11/29 06:01:20;;;;;;;3.53;2.40;;;10.40;97.30;;;10.77;67.48;98500.66;4968461;28;114729;-77
2022/11/29 06:04:01;;;;;;;2.50;2.00;;;10.30;97.30;;;10.79;67.55;98501.16;4959431;28;113558;-77
2022/11/29 06:06:43;;;;;;;2.40;2.03;;;10.30;97.30;;;10.82;67.68;98506.03;4939573;28;123936;-77
2022/11/29 06:09:15;;;;;;;2.90;2.53;;;10.40;97.30;;;10.83;67.63;98504.91;4944813;28;123966;-77
2022/11/29 06:12:20;;;;;;;3.67;2.40;;;10.30;97.30;;;10.84;67.22;98501.00;4948496;28;114432;-77
2022/11/29 06:15:30;;;;;;;3.00;2.23;;;10.30;97.30;;;10.78;66.98;98505.88;4947982;28;113696;-77
2022/11/29 06:18:25;;;;;;;2.20;1.90;;;10.30;97.30;;;10.78;67.10;98510.59;4946879;28;124064;-77
2022/11/29 06:21:07;;;;;;;2.50;2.13;;;10.30;97.30;;;10.76;67.21;98519.19;4948273;28;123467;-78
2022/11/29 06:24:19;;;;;;;3.63;2.20;;;10.30;97.30;;;10.72;66.90;98520.13;4951258;28;114157;-77
2022/11/29 06:27:10;;;;;;;2.63;2.03;;;10.30;97.30;;;10.70;67.01;98514.94;4941085;28;114104;-77
2022/11/29 06:30:12;;;;;;;2.50;2.00;;;10.20;97.20;;;10.67;67.44;98525.84;4946104;28;123993;-77
2022/11/29 06:33:23;;;;;;;2.67;2.27;;;10.20;97.20;;;10.63;67.35;98525.66;4952931;28;123504;-77
2022/11/29 06:36:11;;;;;;;2.70;2.50;;;10.20;97.20;;;10.61;67.58;98536.19;4962921;28;115669;-76
2022/11/29 06:38:38;;;;;;;5.80;2.53;;;10.20;97.20;;;10.59;67.58;98536.53;4959603;28;114879;-73
2022/11/29 06:41:05;;;;;;;2.57;2.37;;;10.20;97.20;;;10.62;67.75;98535.06;4966716;28;123873;-74
2022/11/29 06:43:32;;;;;;;4.53;2.50;;;10.20;97.20;;;10.61;67.61;98534.28;4964771;28;123568;-78
2022/11/29 06:46:38;;;;;;;5.97;2.80;;;10.20;97.30;;;10.59;67.64;98539.28;4959614;28;114512;-78
2022/11/29 06:49:24;;;;;;;5.20;2.77;;;10.10;97.30;;;10.57;67.27;98538.78;4950644;28;114086;-76
2022/11/29 06:52:12;;;;;;;5.93;2.70;;;10.10;97.30;;;10.56;67.69;98541.88;4946842;28;124023;-77
2022/11/29 06:55:06;;;;;;;2.43;2.07;;;10.10;97.30;;;10.55;67.75;98548.53;4947220;28;124279;-77
2022/11/29 06:57:46;;;;;;;3.70;2.90;;;10.10;97.30;;;10.54;67.69;98556.00;4938908;28;114239;-76
2022/11/29 07:00:25;;;;;;;4.90;3.20;;;10.10;97.40;;;10.56;67.69;98551.00;4946154;28;114657;-75
2022/11/29 07:03:25;;;;;;;2.93;2.73;;;10.10;97.40;;;10.60;67.90;98548.38;4951215;28;124099;-74
2022/11/29 07:05:52;;;;;;;3.03;2.50;;;10.20;97.60;;;10.62;67.54;98557.19;4952226;28;124235;-75
2022/11/29 07:08:22;;;;;;;3.10;2.70;;;10.20;97.50;;;10.66;67.98;98562.88;4959892;28;113956;-77
2022/11/29 07:10:54;;;;;;;4.60;2.90;;;10.20;97.50;;;10.67;67.73;98565.34;4953424;28;113132;-75
2022/11/29 07:13:22;;;;;;;2.50;2.23;;;10.20;97.50;;;10.66;67.78;98568.41;4955680;28;123405;-75
2022/11/29 07:16:21;;;;;;;4.03;3.63;;;10.20;97.50;;;10.65;67.31;98564.81;4951492;28;124130;-75
2022/11/29 07:19:10;;;;;;;2.90;2.40;;;10.20;97.50;;;10.65;67.44;98561.25;4945602;28;113493;-75
2022/11/29 07:21:47;;;;;;;3.90;2.60;;;10.20;97.50;;;10.65;67.64;98566.78;4963841;28;113574;-75
2022/11/29 07:24:54;;;;;;;3.23;2.93;;;10.20;97.50;;;10.69;67.52;98573.28;4944600;28;124030;-74
2022/11/29 07:27:56;;;;;;;3.60;3.00;;;10.20;97.50;;;10.72;67.81;98578.16;4947863;28;123694;-75
2022/11/29 07:31:03;;;;;;;3.63;2.77;;;10.20;97.50;;;10.71;67.49;98579.31;4949532;28;114304;-75
2022/11/29 07:34:17;;;;;;;3.93;2.80;;;10.20;97.50;;;10.74;67.40;98584.19;4942040;28;114962;-76
2022/11/29 07:37:22;;;;;;;3.40;2.77;;;10.30;97.50;;;10.77;67.35;98581.63;4951824;28;122974;-74
2022/11/29 07:40:20;;;;;;;3.47;3.00;;;10.30;97.50;;;10.78;67.69;98582.44;4949974;28;124247;-74
2022/11/29 07:43:02;;;;;;;3.50;2.87;;;10.30;97.50;;;10.81;67.61;98579.03;4893554;28;113667;-74
2022/11/29 07:45:32;;;;;;;3.13;2.80;;;10.30;97.60;;;10.85;67.77;98582.78;4896887;28;113320;-74
2022/11/29 07:48:00;;;;;;;3.90;2.87;;;10.30;97.70;;;10.88;67.58;98582.16;4893246;28;124047;-74
2022/11/29 07:50:28;;;;;;;3.10;2.80;;;10.40;97.70;;;10.91;67.66;98587.03;4885206;28;123985;-74
2022/11/29 07:52:57;;;;;;;3.83;3.03;;;10.40;97.70;;;10.96;67.62;98584.13;4909440;28;114699;-74
2022/11/29 07:55:25;;;;;;;3.00;2.70;;;10.40;97.80;;;11.02;68.07;98593.91;4906199;28;113282;-74
2022/11/29 07:57:52;;;;;;;3.47;2.80;;;10.40;97.80;;;11.08;67.87;98591.00;4875929;28;122858;-76
2022/11/29 08:00:20;;;;;;;3.40;2.90;;;10.50;97.90;;;11.13;67.62;98594.41;4916048;28;123626;-75
2022/11/29 08:02:48;;;;;;;3.97;2.90;;;10.50;97.80;;;11.13;67.48;98591.66;4908916;28;114249;-74
2022/11/29 08:05:18;;;;;;;3.87;2.77;;;10.50;97.70;;;11.12;67.10;98597.50;4893763;28;114180;-75
2022/11/29 08:07:46;;;;;;;3.30;2.80;;;10.50;97.60;;;11.08;66.96;98608.38;4910614;28;124013;-75
2022/11/29 08:10:15;;;;;;;4.23;3.07;;;10.50;97.50;;;11.04;66.98;98597.16;4910949;28;124424;-74
2022/11/29 08:12:49;;;;;;;4.83;3.07;;;10.50;97.40;;;10.97;67.25;98602.34;4896263;28;114049;-74
2022/11/29 08:15:17;;;;;;;2.90;2.60;;;10.50;97.30;;;10.93;67.04;98595.81;4894360;28;113282;-74
2022/11/29 08:17:44;;;;;;;2.73;2.43;;;10.40;97.30;;;10.93;66.98;98601.34;4896287;28;123615;-75
2022/11/29 08:20:13;;;;;;;2.60;2.40;;;10.50;97.30;;;10.93;66.88;98600.53;4935143;28;126183;-75
2022/11/29 08:22:40;;;;;;;4.30;3.27;;;10.40;97.30;;;10.92;67.40;98610.78;4949835;28;115013;-76
2022/11/29 08:25:08;;;;;;;3.00;2.70;;;10.40;97.30;;;10.91;67.15;98613.84;4950761;28;115408;-76
2022/11/29 08:27:56;;;;;;;5.63;2.87;;;10.40;97.30;;;10.90;67.23;98610.28;4949460;28;123219;-74
2022/11/29 08:30:23;;;;;;;2.67;2.47;;;10.90;97.50;;;10.87;66.99;98610.91;4933960;28;122710;-74
2022/11/29 08:32:51;;;;;;;5.57;2.93;;;10.40;97.30;;;10.82;67.32;98614.63;4950853;28;114764;-73
2022/11/29 08:35:19;;;;;;;9.57;3.33;;;10.30;97.30;;;10.80;67.11;98607.78;4947707;28;113917;-76
2022/11/29 08:37:46;;;;;;;2.80;2.47;;;10.30;97.30;;;10.80;67.01;98613.31;4927939;28;123747;-74
2022/11/29 08:40:13;;;;;;;2.73;2.40;;;10.30;97.40;;;10.80;67.50;98616.06;4932290;28;124088;-76
2022/11/29 08:42:40;;;;;;;3.40;2.67;;;10.30;97.40;;;10.78;67.70;98610.06;4934429;28;114604;-74
2022/11/29 08:45:08;;;;;;;3.90;2.77;;;10.40;97.50;;;10.75;67.12;98619.81;4929110;28;114182;-74
2022/11/29 08:47:41;;;;;;;4.37;2.87;;;10.30;97.50;;;10.74;67.77;98620.13;4941715;28;123987;-76
2022/11/29 08:50:15;;;;;;;4.03;2.97;;;10.30;97.50;;;10.74;67.62;98625.66;4949675;28;123522;-75
2022/11/29 08:55:38;;;;;;;4.60;3.30;;;10.20;97.60;;;10.69;67.75;98625.78;4948360;28;114697;-79
2022/11/29 08:58:24;;;;;;;4.13;3.00;;;10.00;97.50;;;10.70;68.02;98619.13;4933010;28;123903;-83
2022/11/29 09:00:53;;;;;;;5.30;2.83;;;10.20;97.60;;;10.71;67.65;98620.75;4953638;28;124287;-85
2022/11/29 09:06:11;;;;;;;3.73;2.73;;;9.30;97.80;;;10.73;68.00;98624.84;4952763;28;114858;-79
2022/11/29 09:08:38;;;;;;;3.10;2.80;;;10.20;97.70;;;10.73;68.07;98635.88;4953903;28;122642;-80
2022/11/29 09:11:15;;;;;;;3.47;2.70;;;11.50;98.20;;;10.75;67.81;98632.81;4968818;28;123843;-83
2022/11/29 09:13:45;;;;;;;2.93;2.63;;;11.20;98.10;;;10.75;68.15;98639.16;4956236;28;117008;-79
2022/11/29 09:16:16;;;;;;;2.50;2.30;;;10.80;97.90;;;10.74;67.81;98639.47;4953123;28;114802;-78
2022/11/29 09:18:44;;;;;;;3.73;2.77;;;10.30;97.80;;;10.75;68.42;98643.88;4950059;28;124132;-84
2022/11/29 09:21:12;;;;;;;3.17;2.83;;;12.40;98.70;;;10.76;68.22;98645.50;4967548;28;123084;-80
2022/11/29 09:23:41;;;;;;;3.20;2.87;;;9.30;97.90;;;10.77;68.48;98642.44;4962408;28;114239;-79
2022/11/29 09:26:16;;;;;;;4.00;3.23;;;12.10;98.60;;;10.82;68.17;98649.75;4960263;28;114610;-80
2022/11/29 09:28:42;;;;;;;3.63;2.87;;;10.30;97.90;;;10.81;68.16;98637.06;4969937;28;124419;-80
2022/11/29 09:31:13;;;;;;;3.43;3.00;;;10.30;97.90;;;10.85;68.14;98649.09;4964019;28;123921;-81
2022/11/29 09:33:40;;;;;;;3.90;3.07;;;11.40;98.30;;;10.86;68.04;98647.19;4960043;28;114165;-81
2022/11/29 09:36:09;;;;;;;3.60;3.30;;;10.40;97.90;;;10.84;68.11;98653.81;4964998;28;114063;-79
2022/11/29 09:38:36;;;;;;;3.93;3.40;;;10.30;97.90;;;10.83;68.21;98656.91;4969346;28;123586;-79
2022/11/29 09:41:44;;;;;;;4.27;3.60;;;10.40;97.90;;;10.81;68.07;98657.22;4964708;28;123597;-81
2022/11/29 09:44:44;;;;;;;5.93;3.63;;;10.30;97.90;;;10.80;68.51;98661.13;4978371;28;114543;-81
2022/11/29 09:47:35;;;;;;;5.97;4.83;;;8.30;97.60;;;10.78;68.56;98657.88;4970038;28;113587;-82
2022/11/29 09:50:41;;;;;;;4.90;4.27;;;10.30;98.00;;;10.79;68.63;98667.78;4968892;28;124174;-79
2022/11/29 09:53:21;;;;;;;5.90;4.53;;;10.30;98.00;;;10.77;68.76;98670.06;4967049;28;124612;-83
2022/11/29 09:56:15;;;;;;;6.30;4.20;;;11.60;98.60;;;10.77;68.41;98663.69;4940142;28;113640;-80
2022/11/29 09:59:07;;;;;;;7.00;5.20;;;10.30;98.00;;;10.75;68.51;98666.78;4967745;28;114787;-83
2022/11/29 10:02:03;;;;;;;5.47;4.40;;;10.30;98.00;;;10.72;68.74;98669.34;4964432;28;124276;-82
2022/11/29 10:04:36;;;;;;;8.47;5.27;;;10.70;98.30;;;10.64;68.72;98672.88;4952298;28;123816;-82
2022/11/29 10:07:20;;;;;;;6.77;4.40;;;10.80;98.40;;;10.64;68.99;98682.00;4953097;28;115143;-84
2022/11/29 10:10:07;;;;;;;10.70;5.43;;;10.20;98.30;;;10.63;69.00;98676.78;4955888;28;114338;-79
2022/11/29 10:12:43;;;;;;;7.50;4.03;;;10.20;98.30;;;10.57;68.96;98676.91;4971797;28;123554;-82
2022/11/29 10:15:26;;;;;;;7.73;4.60;;;10.10;98.30;;;10.58;69.24;98678.53;4964748;28;124039;-81
2022/11/29 10:17:56;;;;;;;7.23;5.37;;;10.10;98.30;;;10.56;69.61;98680.81;4969219;28;113519;-82
2022/11/29 10:20:30;;;;;;;6.97;4.83;;;12.80;99.60;;;10.60;69.21;98676.28;4956978;28;111886;-79
2022/11/29 10:23:21;;;;;;;8.57;4.77;;;10.70;98.70;;;10.59;69.33;98679.38;4967891;28;124193;-83
2022/11/29 10:25:52;;;;;;;7.37;5.33;;;10.10;98.50;;;10.57;69.85;98676.09;4954132;28;123454;-83
2022/11/29 10:28:24;;;;;;;10.00;6.20;;;11.90;99.30;;;10.58;69.55;98675.78;4968512;28;114183;-84
2022/11/29 10:30:57;;;;;;;8.20;6.00;;;10.10;98.60;;;10.61;69.54;98682.63;4967223;28;114089;-83
2022/11/29 10:33:34;;;;;;;8.50;6.00;;;11.60;99.20;;;10.61;69.63;98675.16;4938400;28;123212;-86
2022/11/29 10:36:33;;;;;;;9.23;6.23;;;10.20;98.60;;;10.65;69.57;98671.78;4951362;28;121649;-80
2022/11/29 10:39:25;;;;;;;9.87;7.20;;;10.10;98.60;;;10.66;69.48;98668.69;4957275;28;112171;-79
2022/11/29 10:41:56;;;;;;;8.57;6.20;;;11.40;99.10;;;10.67;69.42;98669.50;4950615;28;113860;-83
2022/11/29 10:44:24;;;;;;;8.47;6.23;;;11.40;99.10;;;10.68;69.35;98666.41;4949332;28;123177;-80
2022/11/29 10:46:52;;;;;;;10.50;6.93;;;10.20;98.50;;;10.70;69.27;98666.91;4952431;28;123731;-80
2022/11/29 10:49:25;;;;;;;11.30;7.20;;;10.20;98.60;;;10.73;69.17;98669.06;4939026;28;114413;-85
2022/11/29 10:51:53;;;;;;;12.23;7.33;;;11.40;99.10;;;10.72;69.27;98663.81;4971265;28;113186;-80
2022/11/29 10:54:42;;;;;;;12.03;7.60;;;10.20;98.60;;;10.75;69.26;98669.56;4971887;28;124000;-82
2022/11/29 10:57:19;;;;;;;9.70;6.90;;;10.20;98.60;;;10.75;69.32;98677.84;4948112;28;123566;-81
2022/11/29 11:00:06;;;;;;;12.80;6.93;;;10.20;98.60;;;10.73;68.92;98668.25;4973499;28;115550;-85
2022/11/29 11:02:33;;;;;;;10.17;6.80;;;10.20;98.50;;;10.70;68.81;98669.69;4971126;28;115247;-80
2022/11/29 11:05:03;;;;;;;8.73;5.83;;;11.90;99.20;;;10.73;69.08;98676.53;4974501;28;124700;-86
2022/11/29 11:07:34;;;;;;;9.37;6.07;;;10.20;98.50;;;10.77;68.86;98670.06;4955646;28;121964;-82
2022/11/29 11:10:25;;;;;;;10.53;5.97;;;10.80;98.80;;;10.82;68.92;98669.09;4944997;28;114367;-81
2022/11/29 11:13:05;;;;;;;8.73;6.20;;;10.30;98.50;;;10.81;68.76;98676.56;4918206;28;113952;-79
2022/11/29 11:15:32;;;;;;;8.87;5.50;;;10.30;98.40;;;10.81;68.73;98675.75;4909110;28;124309;-84
2022/11/29 11:18:21;;;;;;;9.63;5.53;;;11.00;98.70;;;10.86;68.77;98672.06;4937326;28;123615;-80
2022/11/29 11:20:58;;;;;;;11.80;6.10;;;10.30;98.40;;;10.87;68.75;98668.97;4918504;28;114285;-83
2022/11/29 11:23:30;;;;;;;12.07;7.90;;;11.60;98.90;;;10.84;68.72;98669.59;4926698;28;114034;-81
2022/11/29 11:26:09;;;;;;;9.70;6.90;;;11.90;99.00;;;10.86;68.68;98667.34;4936093;28;122988;-81